• Join FlightAware (Why Join?)
  • Login
  • US Flag 
05:43AM EDT


 

Airport Tracker/Info


-or-


 

Live Flight TrackerFlight Track Log ✈ SWA1802 ✈ 04-May-2013 ✈ KALB - KMCO

Flight Track Log - Related Links

Times and Time Zones

All times are in EDT time to prevent confusion due to time zone crossing. See the SWA1802 flight status page for this flight to view local times or setup timezone preferences in your user account.

Time Position Orientation Groundspeed Altitude Reporting Facility
EDT Latitude Longitude Course Direction KTS MPH feet Rate Location/Type
06:47AM 42.7236 -73.8081 182° South 158 182 1,600  Level Boston Center
06:47AM 42.6881 -73.8100 182° South 192 221 3,200 2,400 Climbing Boston Center
06:49AM 42.6556 -73.9053 245° Southwest 250 288 6,200 2,820 Climbing Boston Center
06:50AM 42.6128 -73.9861 234° Southwest 259 298 9,400 2,640 Climbing Boston Center
06:51AM 42.5278 -73.9669 171° South 232 267 11,500 2,580 Climbing Boston Center
06:52AM 42.4236 -73.9506 173° South 327 376 14,600 2,760 Climbing Boston Center
06:53AM 42.3239 -73.9311 172° South 360 414 17,100 2,040 Climbing Boston Center
06:54AM 42.2242 -73.9147 173° South 392 451 18,700 1,920 Climbing Boston Center
06:55AM 42.0972 -73.8978 174° South 411 473 21,000 2,220 Climbing Boston Center
06:56AM 41.9725 -73.8781 173° South 430 495 23,200 1,800 Climbing Boston Center
06:58AM 41.6761 -73.8261 173° South 460 529 27,200 1,560 Climbing New York Center
06:59AM 41.5431 -73.8144 176° South 471 542 28,600 1,380 Climbing New York Center
07:00AM 41.4131 -73.8444 190° South 476 548 30,100 1,560 Climbing New York Center
07:01AM 41.2883 -73.9217 205° Southwest 476 548 31,800 1,680 Climbing New York Center
07:02AM 41.1697 -73.9961 205° Southwest 482 555 33,500 1,500 Climbing New York Center
07:03AM 41.0508 -74.0728 206° Southwest 482 555 34,900 1,200 Climbing New York Center
07:04AM 40.9322 -74.1439 204° Southwest 477 549 36,000 540 Climbing New York Center
07:05AM 40.8219 -74.2069 203° Southwest 471 542 36,000  Level New York Center
07:06AM 40.7033 -74.2778 204° Southwest 471 542 36,000  Level New York Center
07:07AM 40.5864 -74.3508 205° Southwest 471 542 36,000  Level New York Center
07:08AM 40.4678 -74.4211 204° Southwest 471 542 36,000  Level New York Center
07:10AM 40.2506 -74.5533 205° Southwest 478 550 36,000  Level Washington Center
07:11AM 40.1303 -74.6228 204° Southwest 478 550 36,000  Level Washington Center
07:12AM 40.0122 -74.6950 205° Southwest 478 550 36,000  Level Washington Center
07:13AM 39.8961 -74.7614 204° Southwest 478 550 36,000  Level Washington Center
07:14AM 39.7778 -74.8356 206° Southwest 478 550 36,000  Level Washington Center
07:15AM 39.6594 -74.9014 203° Southwest 478 550 36,000  Level Washington Center
07:16AM 39.5536 -74.9644 205° Southwest 478 550 36,000  Level Washington Center
07:17AM 39.4372 -75.0353 205° Southwest 473 544 36,000  Level Washington Center
07:18AM 39.3228 -75.1033 205° Southwest 466 536 36,000  Level Washington Center
07:19AM 39.2064 -75.1711 204° Southwest 460 529 36,000  Level Washington Center
07:20AM 39.0919 -75.2414 205° Southwest 460 529 36,000  Level Washington Center
07:21AM 38.9797 -75.3058 204° Southwest 460 529 36,000  Level Washington Center
07:22AM 38.8650 -75.3756 205° Southwest 460 529 36,000  Level Washington Center
07:23AM 38.7506 -75.4453 205° Southwest 460 529 36,000  Level Washington Center
07:24AM 38.6319 -75.5092 203° Southwest 460 529 36,000  Level Washington Center
07:25AM 38.5192 -75.5811 207° Southwest 465 535 36,000  Level Washington Center
07:26AM 38.4047 -75.6419 203° Southwest 460 529 36,000  Level Washington Center
07:27AM 38.2919 -75.7081 205° Southwest 460 529 36,000  Level Washington Center
07:28AM 38.1708 -75.7739 203° Southwest 460 529 36,000  Level Washington Center
07:29AM 38.0603 -75.8397 205° Southwest 460 529 36,000  Level Washington Center
07:30AM 37.9475 -75.9078 205° Southwest 455 524 36,000  Level Washington Center
07:31AM 37.8325 -75.9731 204° Southwest 455 524 36,000  Level Washington Center
07:32AM 37.7178 -76.0433 206° Southwest 455 524 36,000  Level Washington Center
07:33AM 37.6069 -76.1108 206° Southwest 455 524 36,000  Level Washington Center
07:34AM 37.4919 -76.1650 200° South 450 518 36,000  Level Washington Center
07:35AM 37.3789 -76.2294 204° Southwest 445 512 36,000  Level Washington Center
07:36AM 37.2681 -76.2939 205° Southwest 440 506 36,000  Level Washington Center
07:37AM 37.1550 -76.3581 204° Southwest 440 506 36,000  Level Washington Center
07:38AM 37.0419 -76.4219 204° Southwest 440 506 36,000  Level Washington Center
07:39AM 36.9308 -76.4831 204° Southwest 440 506 36,000  Level Washington Center
07:40AM 36.8178 -76.5467 204° Southwest 440 506 36,000  Level Washington Center
07:41AM 36.6942 -76.6150 204° Southwest 440 506 36,000  Level Washington Center
07:42AM 36.5956 -76.6758 206° Southwest 440 506 36,000 360 Level Washington Center
07:43AM 36.4803 -76.7364 203° Southwest 440 506 36,800 900 Climbing Washington Center
07:44AM 36.3692 -76.7967 204° Southwest 440 506 37,900 540 Climbing Washington Center
07:45AM 36.2600 -76.8567 204° Southwest 440 506 38,000  Climbing Washington Center
07:46AM 36.1486 -76.9167 204° Southwest 440 506 38,000  Level Washington Center
07:47AM 36.0375 -76.9764 203° Southwest 440 506 38,000  Level Washington Center
07:48AM 35.9242 -77.0361 203° Southwest 440 506 38,000  Level Washington Center
07:49AM 35.8150 -77.0956 204° Southwest 440 506 38,000  Level Washington Center
07:50AM 35.6931 -77.1622 204° Southwest 440 506 38,000  Level Washington Center
07:51AM 35.5817 -77.2214 203° Southwest 440 506 38,000  Level Washington Center
07:52AM 35.4622 -77.2650 197° South 440 506 38,000  Level Washington Center
07:53AM 35.3447 -77.3058 196° South 445 512 38,000  Level Washington Center
07:54AM 35.2292 -77.3492 197° South 445 512 38,000  Level Washington Center
07:55AM 35.1097 -77.3922 196° South 439 505 38,000  Level Washington Center
07:56AM 35.0089 -77.4281 196° South 439 505 38,000  Level Washington Center
07:57AM 34.8936 -77.4708 197° South 439 505 38,000  Level Washington Center
07:58AM 34.7822 -77.5139 198° South 439 505 38,000  Level Washington Center
07:59AM 34.6711 -77.5542 197° South 428 493 38,000  Level Washington Center
08:00AM 34.5578 -77.5919 195° South 428 493 38,000  Level Washington Center
08:01AM 34.3539 -77.6664 197° South 422 486 38,000  Level Jacksonville Center
08:02AM 34.2408 -77.7033 195° South 422 486 38,000  Level Jacksonville Center
08:03AM 34.1236 -77.7428 196° South 429 494 38,000  Level Jacksonville Center
08:04AM 34.0083 -77.7822 196° South 429 494 38,000  Level Jacksonville Center
08:05AM 33.8953 -77.8239 197° South 429 494 38,000  Level Jacksonville Center
08:06AM 33.7800 -77.8656 197° South 429 494 38,000  Level Jacksonville Center
08:07AM 33.6669 -77.9044 196° South 429 494 38,000  Level Jacksonville Center
08:08AM 33.5517 -77.9433 196° South 429 494 38,000  Level Jacksonville Center
08:09AM 33.4361 -77.9819 196° South 429 494 38,000  Level Jacksonville Center
08:10AM 33.3250 -78.0231 197° South 429 494 38,000  Level Jacksonville Center
08:11AM 33.2097 -78.0617 196° South 429 494 38,000  Level Jacksonville Center
08:12AM 33.0944 -78.1000 196° South 429 494 38,000  Level Jacksonville Center
08:13AM 32.9789 -78.1408 197° South 429 494 38,000  Level Jacksonville Center
08:14AM 32.8636 -78.1792 196° South 429 494 38,000  Level Jacksonville Center
08:15AM 32.7522 -78.2169 196° South 429 494 38,000  Level Jacksonville Center
08:16AM 32.6389 -78.2550 196° South 429 494 38,000  Level Jacksonville Center
08:17AM 32.5233 -78.2928 195° South 429 494 38,000  Level Jacksonville Center
08:18AM 32.4119 -78.3306 196° South 429 494 38,000  Level Jacksonville Center
08:19AM 32.3092 -78.3700 198° South 429 494 38,000  Level Jacksonville Center
08:20AM 32.2000 -78.4097 197° South 423 487 38,000  Level Jacksonville Center
08:21AM 32.0822 -78.4475 195° South 423 487 38,000  Level Jacksonville Center
08:22AM 31.9708 -78.4847 196° South 430 495 38,000  Level Jacksonville Center
08:23AM 31.8553 -78.5244 196° South 430 495 38,000  Level Jacksonville Center
08:24AM 31.7419 -78.5639 196° South 430 495 38,000  Level Jacksonville Center
08:25AM 31.6283 -78.6008 195° South 430 495 38,000  Level Jacksonville Center
08:26AM 31.5169 -78.6378 196° South 430 495 38,000  Level Jacksonville Center
08:27AM 31.4033 -78.6769 196° South 430 495 38,000  Level Jacksonville Center
08:28AM 31.2981 -78.7086 194° South 420 483 38,000  Level Jacksonville Center
08:29AM 31.1864 -78.7450 196° South 415 478 38,000  Level Jacksonville Center
08:30AM 31.0769 -78.7839 197° South 409 471 38,000  Level Jacksonville Center
08:31AM 30.9675 -78.8200 196° South 417 480 38,000  Level Jacksonville Center
08:32AM 30.8558 -78.8539 195° South 417 480 38,000  Level Jacksonville Center
08:33AM 30.7506 -78.8897 196° South 407 468 38,000  Level Jacksonville Center
08:34AM 30.6389 -78.9258 196° South 413 475 38,000  Level Jacksonville Center
08:35AM 30.5253 -78.9619 195° South 413 475 38,000  Level Jacksonville Center
08:36AM 30.4708 -78.9803 196° South 415 478 38,000  Level Miami Center
08:37AM 30.3703 -79.0167 197° South 415 478 38,000  Level Miami Center
08:38AM 30.2653 -79.0650 202° Southwest 420 483 38,000  Level Miami Center
08:39AM 30.1561 -79.1133 201° Southwest 425 489 38,000  Level Miami Center
08:40AM 30.0469 -79.1611 201° Southwest 425 489 38,000 -480 Level Miami Center
08:41AM 29.9542 -79.2358 215° Southwest 413 475 37,100 -900 Descending Miami Center
08:42AM 29.8692 -79.3178 220° Southwest 413 475 36,200 -600 Descending Miami Center
08:43AM 29.7742 -79.3897 213° Southwest 408 470 36,000 -120 Descending Miami Center
08:44AM 29.6853 -79.4686 218° Southwest 418 481 36,000  Level Miami Center
08:45AM 29.5961 -79.5478 218° Southwest 418 481 36,000  Level Miami Center
08:46AM 29.5050 -79.6264 217° Southwest 418 481 36,000 -1,380 Level Miami Center
08:47AM 29.4158 -79.7028 217° Southwest 413 475 33,300 -2,820 Descending Miami Center
08:48AM 29.3267 -79.7792 217° Southwest 413 475 30,400 -2,640 Descending Miami Center
08:49AM 29.2333 -79.8622 218° Southwest 418 481 28,100 -2,340 Descending Miami Center
08:50AM 29.1461 -79.9383 217° Southwest 413 475 25,800 -2,280 Descending Miami Center
08:51AM 29.0567 -80.0142 217° Southwest 413 475 23,600 -2,160 Descending Miami Center
08:52AM 28.9717 -80.0853 216° Southwest 403 464 21,500 -2,100 Descending Miami Center
08:53AM 28.9072 -80.1711 229° Southwest 390 449 19,400 -2,400 Descending Miami Center
08:55AM 28.8500 -80.3667 252° West 361 415 15,000 -1,980 Descending Orlando TRACON
08:56AM 28.8333 -80.4667 259° West 350 403 14,000 -900 Descending Orlando TRACON
08:57AM 28.8167 -80.5833 261° West 346 398 13,200 -960 Descending Orlando TRACON
08:58AM 28.8000 -80.7000 261° West 342 394 12,100 -1,260 Descending Orlando TRACON
08:59AM 28.7833 -80.8000 259° West 338 389 10,600 -1,200 Descending Orlando TRACON
09:00AM 28.7667 -80.8833 257° West 280 322 9,900 -1,260 Descending Orlando TRACON
09:01AM 28.7500 -81.0000 261° West 284 327 8,000 -1,680 Descending Orlando TRACON
09:02AM 28.7333 -81.0833 257° West 285 328 6,400 -1,140 Descending Orlando TRACON
09:03AM 28.7500 -81.1500 286° West 250 288 5,900 -900 Descending Orlando TRACON
09:04AM 28.7500 -81.2167 270° West 245 282 4,800 -1,020 Descending Orlando TRACON
09:05AM 28.7333 -81.2833 254° West 224 258 4,100 -420 Descending Orlando TRACON
09:06AM 28.6667 -81.2833 180° South 189 217 4,000 -360 Descending Orlando TRACON
09:07AM 28.6167 -81.2833 180° South 177 204 3,400 -720 Descending Orlando TRACON
09:08AM 28.5667 -81.2833 180° South 165 190 2,600 -900 Descending Orlando TRACON
09:09AM 28.5333 -81.2833 180° South 154 177 1,700 -840 Descending Orlando TRACON
09:10AM 28.4833 -81.2833 180° South 153 176 1,000 -780 Descending Orlando TRACON